KJVL/JVL METAR and TAF weather

Enter ICAO airport designator
Station Type Date Time Source
KJVL METAR 2019/12/09 00:45 UTC NOAA

KJVL 090045Z 00000KT 6SM BR OVC013 04/04 A2980


Station Type Date Time Source
KJVL Decoded METAR 2019/12/09 00:45 UTC NOAA

Janesville / Rock County, WI, United States (KJVL) 42-37N 089-02W
Dec 08, 2019 - 07:45 PM EST / 2019.12.09 0045 UTC
Wind: Calm:0
Visibility: 6 mile(s):0
Sky conditions: overcast
Weather: mist
Temperature: 39 F (4 C)
Dew Point: 39 F (4 C)
Relative Humidity: 100%
Pressure (altimeter): 29.8 in. Hg (1009 hPa)
ob: KJVL 090045Z 00000KT 6SM BR OVC013 04/04 A2980
cycle: 1

Station Type Date Time Source
KJVL TAF UTC NOAA

Error!

Example: see airport list